Time;durP1;ratioP1;P1;durP2;ratioP2;P2;SDS_P1;SDS_P2;PMS_P1;PMS_P2;Temp;Humidity;BMP_temperature;BMP_pressure;BME280_temperature;BME280_humidity;BME280_pressure;Samples;Min_cycle;Max_cycle;Signal;HPM_P1;HPM_P2
2022/04/19 00:01:13;;;;;;;26.25;11.25;;;;;;;6.08;56.78;98962.31;8522080;27;20046;-75
2022/04/19 00:05:15;;;;;;;33.28;11.88;;;;;;;6.03;57.03;98962.34;8556864;27;20055;-76
2022/04/19 00:09:17;;;;;;;33.03;12.02;;;;;;;5.95;57.69;98946.91;8513382;27;20560;-75
2022/04/19 00:13:18;;;;;;;29.25;11.18;;;;;;;5.87;57.72;98944.81;8535378;27;20416;-76
2022/04/19 00:17:19;;;;;;;24.25;11.20;;;;;;;5.80;57.86;98944.31;8516317;27;20039;-75
2022/04/19 00:21:20;;;;;;;25.50;11.27;;;;;;;5.76;58.08;98935.25;8486622;27;20031;-75
2022/04/19 00:25:22;;;;;;;29.83;10.98;;;;;;;5.73;58.23;98938.47;8517020;27;20386;-76
2022/04/19 00:29:23;;;;;;;23.73;10.25;;;;;;;5.65;58.21;98931.84;8520996;27;20052;-75
2022/04/19 00:33:24;;;;;;;25.23;11.15;;;;;;;5.59;58.29;98937.53;8523621;27;20043;-75
2022/04/19 00:37:25;;;;;;;29.20;10.43;;;;;;;5.53;58.94;98928.72;8524215;27;20043;-76
2022/04/19 00:41:26;;;;;;;26.63;10.35;;;;;;;5.44;59.38;98925.88;8490142;27;20042;-76
2022/04/19 00:45:27;;;;;;;26.13;11.40;;;;;;;5.41;59.48;98926.41;8547741;27;20042;-75
2022/04/19 00:49:28;;;;;;;23.42;9.85;;;;;;;5.36;59.62;98923.75;8488797;27;20095;-75
2022/04/19 00:53:29;;;;;;;28.92;10.00;;;;;;;5.25;59.65;98924.91;8472944;27;20510;-75
2022/04/19 00:57:32;;;;;;;20.75;8.98;;;;;;;5.21;59.96;98915.84;8482684;27;20117;-75
2022/04/19 01:01:33;;;;;;;28.65;10.75;;;;;;;5.07;60.61;98920.22;8498332;27;20065;-75
2022/04/19 01:05:35;;;;;;;20.65;9.35;;;;;;;4.97;60.63;98914.94;8496561;27;20504;-75
2022/04/19 01:09:36;;;;;;;23.90;10.40;;;;;;;4.89;60.44;98912.81;8532070;27;20062;-75
2022/04/19 01:13:38;;;;;;;25.30;9.75;;;;;;;4.85;60.57;98911.78;8515948;27;20240;-76
2022/04/19 01:17:40;;;;;;;20.35;8.82;;;;;;;4.83;61.17;98904.03;8476614;27;20424;-75
2022/04/19 01:21:44;;;;;;;23.73;10.30;;;;;;;4.84;61.05;98899.47;8540106;27;20050;-75
2022/04/19 01:25:46;;;;;;;22.90;9.45;;;;;;;4.87;60.65;98893.56;8526102;27;20039;-76
2022/04/19 01:29:48;;;;;;;21.30;8.93;;;;;;;4.87;61.21;98893.56;8508595;27;20139;-76
2022/04/19 01:33:49;;;;;;;24.20;8.70;;;;;;;4.91;61.19;98894.63;8534352;27;20082;-76
2022/04/19 01:37:51;;;;;;;20.88;8.70;;;;;;;4.92;61.27;98891.66;8556767;27;20391;-76
2022/04/19 01:41:52;;;;;;;22.52;7.53;;;;;;;4.95;61.33;98885.75;8546574;27;20646;-76
2022/04/19 01:45:54;;;;;;;21.98;8.63;;;;;;;4.94;61.26;98888.72;8503718;27;20392;-76
2022/04/19 01:49:55;;;;;;;23.58;9.70;;;;;;;4.89;61.65;98886.06;8539271;27;20050;-75
2022/04/19 01:53:56;;;;;;;21.95;8.57;;;;;;;4.85;62.14;98868.97;8520377;27;20074;-75
2022/04/19 01:57:59;;;;;;;18.85;7.78;;;;;;;4.80;62.19;98882.38;8556587;27;20065;-75
2022/04/19 02:01:59;;;;;;;19.20;7.88;;;;;;;4.78;62.49;98873.81;8524801;27;20042;-75
2022/04/19 02:06:01;;;;;;;14.60;6.55;;;;;;;4.82;62.38;98890.91;8539495;27;20042;-75
2022/04/19 02:10:04;;;;;;;31.98;10.20;;;;;;;4.77;61.91;98885.59;8549548;27;20069;-76
2022/04/19 02:14:06;;;;;;;21.25;7.03;;;;;;;4.77;61.42;98877.56;8531768;27;20130;-76
2022/04/19 02:18:07;;;;;;;23.83;7.13;;;;;;;4.78;60.82;98868.47;8512045;27;20046;-75
2022/04/19 02:22:09;;;;;;;16.95;6.75;;;;;;;4.77;60.84;98873.00;8485581;27;20433;-75
2022/04/19 02:26:10;;;;;;;17.80;7.00;;;;;;;4.72;61.23;98874.91;8518458;27;20126;-75
2022/04/19 02:30:14;;;;;;;20.42;6.75;;;;;;;4.70;60.68;98871.72;8554878;27;20060;-75
2022/04/19 02:34:15;;;;;;;15.90;6.60;;;;;;;4.60;60.66;98868.00;8524073;27;20088;-75
2022/04/19 02:38:16;;;;;;;15.48;6.60;;;;;;;4.55;60.66;98864.56;8473935;27;20383;-75
2022/04/19 02:42:17;;;;;;;19.45;7.25;;;;;;;4.56;60.67;98866.97;8530721;27;20714;-75
2022/04/19 02:46:18;;;;;;;15.50;6.97;;;;;;;4.53;60.52;98867.53;8498308;27;20419;-76
2022/04/19 02:50:19;;;;;;;18.20;6.22;;;;;;;4.45;61.09;98853.91;8563120;27;20178;-75
2022/04/19 02:54:21;;;;;;;15.77;6.47;;;;;;;4.43;60.83;98867.59;8542517;27;20111;-75
2022/04/19 02:58:25;;;;;;;13.00;6.20;;;;;;;4.39;60.89;98861.16;8494435;27;20066;-75
2022/04/19 03:02:26;;;;;;;17.83;6.28;;;;;;;4.43;61.23;98861.44;8526003;27;20495;-75
2022/04/19 03:06:27;;;;;;;13.35;6.78;;;;;;;4.43;61.02;98851.53;8490258;27;20050;-76
2022/04/19 03:10:28;;;;;;;15.43;5.95;;;;;;;4.41;60.51;98848.34;8544229;27;20058;-75
2022/04/19 03:14:29;;;;;;;12.82;5.75;;;;;;;4.44;60.22;98847.78;8522995;27;20046;-75
2022/04/19 03:18:30;;;;;;;14.65;5.93;;;;;;;4.34;60.06;98853.16;8524918;27;20488;-75
2022/04/19 03:27:41;;;;;;;22.30;6.10;;;;;;;4.29;60.35;98855.84;8518292;27;20042;-75
2022/04/19 03:31:12;;;;;;;;;;;;;;;3.94;60.59;98842.63;8528091;27;20176;-75
2022/04/19 03:35:13;;;;;;;15.32;6.20;;;;;;;3.86;60.63;98851.22;8509052;27;19919;-75
2022/04/19 03:39:14;;;;;;;15.43;5.65;;;;;;;3.76;61.26;98839.47;8520487;27;20047;-75
2022/04/19 03:43:16;;;;;;;14.68;5.75;;;;;;;3.68;61.04;98834.69;8554888;27;20034;-75
2022/04/19 03:47:17;;;;;;;18.10;6.25;;;;;;;3.65;61.48;98819.19;8538965;27;20100;-76
2022/04/19 03:51:18;;;;;;;18.25;6.03;;;;;;;3.64;61.41;98822.94;8531259;27;20054;-75
2022/04/19 03:55:20;;;;;;;17.40;5.75;;;;;;;3.60;61.87;98824.53;8542200;27;20477;-76
2022/04/19 03:59:22;;;;;;;15.07;5.95;;;;;;;3.56;62.03;98836.84;8534335;27;20057;-76
2022/04/19 04:03:23;;;;;;;13.20;5.55;;;;;;;3.60;62.35;98832.53;8472963;27;20091;-75
2022/04/19 04:07:26;;;;;;;15.38;5.75;;;;;;;3.65;62.09;98845.88;8568716;27;20403;-75
2022/04/19 04:11:27;;;;;;;10.90;5.35;;;;;;;3.72;62.03;98849.09;8550741;27;20527;-75
2022/04/19 04:15:28;;;;;;;15.40;6.18;;;;;;;3.78;62.17;98845.34;8471450;27;20528;-75
2022/04/19 04:19:29;;;;;;;11.88;5.38;;;;;;;3.83;62.15;98842.66;8519830;27;20369;-75
2022/04/19 04:23:33;;;;;;;12.32;4.97;;;;;;;3.94;62.24;98837.28;8535126;27;20042;-75
2022/04/19 04:27:33;;;;;;;13.60;5.38;;;;;;;3.99;61.57;98834.59;8522278;27;20046;-76
2022/04/19 04:31:34;;;;;;;16.98;5.45;;;;;;;4.09;61.10;98834.56;8537430;27;20187;-75
2022/04/19 04:35:35;;;;;;;14.40;6.07;;;;;;;4.14;61.20;98818.50;8543540;27;20038;-75
2022/04/19 04:39:37;;;;;;;12.25;5.00;;;;;;;4.15;61.70;98822.78;8558392;27;20042;-76
2022/04/19 04:43:39;;;;;;;11.07;5.32;;;;;;;4.12;61.59;98839.38;8549972;27;20491;-76
2022/04/19 04:51:59;;;;;;;;;;;;;;;4.12;60.77;98850.06;8533553;27;20113;-76
2022/04/19 04:56:00;;;;;;;13.85;4.85;;;;;;;4.08;59.85;98854.34;8540877;27;19918;-75
2022/04/19 05:00:02;;;;;;;12.50;5.70;;;;;;;4.11;59.83;98859.94;8543122;27;20415;-75
2022/04/19 05:04:03;;;;;;;19.08;5.85;;;;;;;4.16;59.92;98857.25;8526680;27;20042;-76
2022/04/19 05:08:06;;;;;;;13.45;5.70;;;;;;;4.18;59.99;98865.00;8563672;27;20126;-76
2022/04/19 05:12:08;;;;;;;16.38;6.03;;;;;;;4.14;60.35;98874.63;8549362;27;20515;-76
2022/04/19 05:16:08;;;;;;;11.18;5.00;;;;;;;4.05;60.64;98892.31;8548129;27;20042;-76
2022/04/19 05:20:09;;;;;;;12.38;5.47;;;;;;;3.99;61.73;98867.47;8554872;27;20038;-75
2022/04/19 05:24:12;;;;;;;12.55;6.45;;;;;;;3.68;65.17;98866.72;8542771;27;20134;-75
2022/04/19 05:28:13;;;;;;;15.70;6.38;;;;;;;3.48;66.88;98860.63;8520869;27;20039;-75
2022/04/19 05:32:14;;;;;;;13.00;5.80;;;;;;;3.45;68.29;98851.25;8509754;27;20500;-75
2022/04/19 05:36:15;;;;;;;13.35;6.38;;;;;;;3.64;68.90;98844.31;8521374;27;20178;-76
2022/04/19 05:40:16;;;;;;;14.48;6.60;;;;;;;3.82;69.38;98834.91;8509477;27;20116;-76
2022/04/19 05:44:17;;;;;;;14.70;6.53;;;;;;;4.07;70.61;98836.72;8499860;27;20047;-75
2022/04/19 05:48:18;;;;;;;12.43;5.85;;;;;;;4.22;70.89;98844.69;8519464;27;20046;-76
2022/04/19 05:52:20;;;;;;;13.73;6.57;;;;;;;4.11;72.36;98845.78;8564834;27;20064;-76
2022/04/19 05:56:21;;;;;;;11.38;6.25;;;;;;;4.30;72.41;98836.09;8514922;27;20055;-76
2022/04/19 06:00:22;;;;;;;25.80;11.48;;;;;;;4.52;72.94;98849.88;8424253;28;20064;-76
2022/04/19 06:08:43;;;;;;;13.00;6.68;;;;;;;4.43;73.83;98827.47;8409664;28;20051;-76
2022/04/19 06:12:44;;;;;;;17.85;7.95;;;;;;;4.43;73.22;98819.47;8396099;28;20051;-74
2022/04/19 06:16:45;;;;;;;13.18;6.65;;;;;;;4.44;73.47;98831.72;8440538;28;20043;-76
2022/04/19 06:20:46;;;;;;;14.38;6.93;;;;;;;4.50;74.45;98835.97;8457553;28;20044;-75
2022/04/19 06:24:49;;;;;;;11.73;6.03;;;;;;;4.65;74.36;98833.22;8434206;28;20135;-75
2022/04/19 06:28:51;;;;;;;16.27;6.13;;;;;;;4.84;73.74;98844.09;8445968;27;20052;-76
2022/04/19 06:32:52;;;;;;;14.73;7.60;;;;;;;5.05;73.54;98852.78;8522489;27;20046;-76
2022/04/19 06:36:53;;;;;;;13.93;6.43;;;;;;;5.25;73.67;98847.25;8519362;27;20047;-75
2022/04/19 06:40:54;;;;;;;13.55;6.13;;;;;;;5.41;73.08;98856.78;8517363;27;20042;-75
2022/04/19 06:44:55;;;;;;;14.57;7.00;;;;;;;5.25;73.09;98847.25;8538165;27;20077;-76
2022/04/19 06:48:58;;;;;;;10.38;6.78;;;;;;;5.17;73.66;98845.19;8520160;27;20138;-75
2022/04/19 06:52:59;;;;;;;11.10;6.80;;;;;;;5.28;73.58;98841.38;8495179;27;20043;-75
2022/04/19 06:57:00;;;;;;;13.57;6.72;;;;;;;5.48;73.03;98841.19;8511076;27;20055;-75
2022/04/19 07:01:03;;;;;;;14.40;6.43;;;;;;;5.59;72.64;98841.09;8499106;27;20118;-76
2022/04/19 07:05:05;;;;;;;17.05;7.15;;;;;;;5.66;72.25;98846.94;8563334;27;20045;-76
2022/04/19 07:09:06;;;;;;;13.70;7.38;;;;;;;5.77;72.19;98848.41;8460261;27;20078;-75
2022/04/19 07:13:08;;;;;;;14.18;6.82;;;;;;;5.85;71.59;98847.81;8494247;27;20425;-76
2022/04/19 07:17:09;;;;;;;13.82;7.15;;;;;;;6.00;71.28;98847.66;8494223;28;20548;-75
2022/04/19 07:29:52;;;;;;;15.43;7.18;;;;;;;6.23;69.65;98849.56;8528200;27;20474;-75
2022/04/19 07:33:53;;;;;;;17.45;8.30;;;;;;;5.92;70.38;98856.34;8530070;27;20099;-75
2022/04/19 07:37:54;;;;;;;14.55;7.60;;;;;;;5.69;70.87;98862.44;8537894;27;20050;-75
2022/04/19 07:41:55;;;;;;;16.95;7.20;;;;;;;5.45;70.88;98857.81;8495394;27;20098;-75
2022/04/19 07:45:57;;;;;;;12.30;7.70;;;;;;;5.48;70.65;98862.63;8513041;27;20061;-76
2022/04/19 07:49:57;;;;;;;18.75;8.45;;;;;;;5.58;70.73;98866.28;8496125;27;20556;-75
2022/04/19 07:53:58;;;;;;;19.27;9.57;;;;;;;5.77;70.85;98875.19;8486929;27;20048;-76
2022/04/19 07:57:59;;;;;;;16.55;9.18;;;;;;;5.96;70.27;98873.44;8428179;28;20056;-75
2022/04/19 08:02:00;;;;;;;20.67;9.13;;;;;;;6.00;69.69;98863.75;8433334;27;20446;-75
2022/04/19 08:06:01;;;;;;;16.83;9.82;;;;;;;6.10;69.43;98873.56;8399960;28;20067;-75
2022/04/19 08:10:03;;;;;;;20.15;11.63;;;;;;;6.19;68.75;98872.66;8456884;27;20055;-75
2022/04/19 08:14:04;;;;;;;20.42;12.07;;;;;;;6.33;68.18;98873.56;8455187;28;20486;-75
2022/04/19 08:18:06;;;;;;;20.10;12.10;;;;;;;6.71;67.84;98877.13;8451032;27;20070;-75
2022/04/19 08:22:07;;;;;;;19.20;11.88;;;;;;;6.74;66.66;98881.09;8460106;27;20055;-76
2022/04/19 08:26:09;;;;;;;19.67;11.10;;;;;;;6.76;66.48;98884.31;8484912;27;20075;-75
2022/04/19 08:30:10;;;;;;;19.20;11.07;;;;;;;6.85;66.32;98895.97;8533271;27;20038;-75
2022/04/19 08:34:12;;;;;;;17.98;11.13;;;;;;;6.76;65.91;98892.34;8533059;27;20147;-75
2022/04/19 08:38:13;;;;;;;19.70;11.20;;;;;;;7.32;66.42;98894.22;8511316;27;20541;-76
2022/04/19 08:42:15;;;;;;;17.02;11.15;;;;;;;7.55;65.22;98898.72;8498483;27;20055;-81
2022/04/19 08:46:18;;;;;;;17.88;11.10;;;;;;;7.64;64.88;98902.31;8522987;27;20046;-76
2022/04/19 08:50:21;;;;;;;14.57;9.52;;;;;;;7.73;64.37;98911.28;8473699;27;20050;-75
2022/04/19 08:58:41;;;;;;;18.10;8.90;;;;;;;6.98;64.74;98919.41;8516616;27;20034;-76
2022/04/19 09:02:47;;;;;;;16.17;9.38;;;;;;;6.75;66.01;98920.28;8517732;27;20133;-75
2022/04/19 09:06:50;;;;;;;12.55;8.63;;;;;;;6.49;67.35;98919.78;8532212;27;20051;-76
2022/04/19 09:11:04;;;;;;;13.68;7.63;;;;;;;6.34;67.95;98928.78;8527469;27;20053;-75
2022/04/19 09:15:08;;;;;;;14.05;8.88;;;;;;;6.74;68.70;98921.34;8466530;27;20044;-75
2022/04/19 09:19:10;;;;;;;10.68;6.95;;;;;;;6.48;66.95;98917.38;8460425;27;20047;-76
2022/04/19 09:23:11;;;;;;;12.05;6.80;;;;;;;6.61;66.15;98916.69;8497476;27;20488;-76
2022/04/19 09:27:31;;;;;;;11.32;6.70;;;;;;;6.84;65.03;98915.84;8497328;27;20084;-76
2022/04/19 09:31:32;;;;;;;14.43;8.07;;;;;;;6.92;65.30;98912.53;8500973;27;20039;-76
2022/04/19 09:35:37;;;;;;;12.32;7.38;;;;;;;7.33;64.27;98923.50;8521122;27;20051;-74
2022/04/19 09:39:39;;;;;;;15.50;8.65;;;;;;;7.84;64.66;98923.47;8460556;27;20489;-75
2022/04/19 09:43:40;;;;;;;14.38;8.63;;;;;;;8.38;62.81;98925.50;8501114;27;20457;-75
2022/04/19 09:47:51;;;;;;;18.23;9.27;;;;;;;8.11;62.76;98927.31;8540402;27;20543;-75
2022/04/19 09:51:52;;;;;;;15.50;8.88;;;;;;;8.36;62.42;98934.94;8546529;27;20101;-75
2022/04/19 09:55:56;;;;;;;19.70;9.90;;;;;;;8.45;61.73;98943.94;8525353;27;20054;-75
2022/04/19 09:59:58;;;;;;;18.77;9.68;;;;;;;8.50;60.95;98943.84;8509555;27;20047;-75
2022/04/19 10:08:23;;;;;;;18.90;9.55;;;;;;;8.39;59.17;98950.50;8521487;27;20042;-75
2022/04/19 10:12:25;;;;;;;12.05;7.18;;;;;;;8.68;58.50;98959.06;8407010;28;20081;-76
2022/04/19 10:16:28;;;;;;;11.25;6.40;;;;;;;8.83;59.31;98966.84;8357124;28;20053;-75
2022/04/19 10:20:33;;;;;;;9.60;5.60;;;;;;;8.52;58.65;98959.66;8357010;28;20072;-76
2022/04/19 10:24:47;;;;;;;8.75;4.90;;;;;;;8.47;59.27;98963.25;8306785;28;20046;-75
2022/04/19 10:28:55;;;;;;;12.50;5.88;;;;;;;8.70;58.82;98956.88;8323921;28;20086;-76
2022/04/19 10:32:56;;;;;;;11.05;5.72;;;;;;;9.19;59.23;98955.34;8348428;28;20091;-76
2022/04/19 10:37:19;;;;;;;8.15;4.88;;;;;;;9.64;58.26;98954.28;8355888;28;20482;-76
2022/04/19 10:41:47;;;;;;;8.45;5.20;;;;;;;10.03;56.43;98960.91;8374734;28;20579;-76
2022/04/19 10:45:49;;;;;;;8.90;5.22;;;;;;;10.30;55.67;98971.56;8475753;27;20052;-75
2022/04/19 10:49:50;;;;;;;8.52;4.75;;;;;;;10.18;53.14;98963.25;8494837;27;20043;-75
2022/04/19 10:53:53;;;;;;;10.48;5.45;;;;;;;10.12;52.75;98967.16;8514932;27;20067;-79
2022/04/19 10:58:06;;;;;;;8.05;4.88;;;;;;;9.88;53.61;98969.38;8533155;27;20567;-75
2022/04/19 11:02:46;;;;;;;6.55;4.70;;;;;;;10.16;54.24;98976.25;8528542;27;20411;-76
2022/04/19 11:06:47;;;;;;;6.22;4.55;;;;;;;10.17;51.91;98961.66;8494791;27;20364;-76
2022/04/19 11:10:49;;;;;;;7.55;4.63;;;;;;;10.37;52.33;98965.72;8472230;27;20431;-76
2022/04/19 11:14:50;;;;;;;7.03;4.18;;;;;;;10.48;52.89;98975.94;8561148;27;20119;-75
2022/04/19 11:18:57;;;;;;;5.40;4.25;;;;;;;10.66;51.95;98989.50;8514951;27;20047;-76
2022/04/19 11:23:17;;;;;;;7.25;4.07;;;;;;;11.02;50.60;98990.13;8494092;27;20046;-75
2022/04/19 11:27:19;;;;;;;9.20;5.25;;;;;;;10.83;49.00;98995.00;8498105;27;20043;-75
2022/04/19 11:31:20;;;;;;;5.88;4.55;;;;;;;10.80;50.27;98990.19;8476228;27;20062;-75
2022/04/19 11:35:22;;;;;;;7.25;4.65;;;;;;;10.42;49.21;98990.66;8527813;27;20082;-76
2022/04/19 11:48:05;;;;;;;9.95;4.30;;;;;;;10.22;49.79;99007.38;8508538;27;20510;-76
2022/04/19 11:52:13;;;;;;;6.32;3.97;;;;;;;10.03;51.59;99015.66;8475271;27;20106;-77
2022/04/19 11:56:14;;;;;;;6.28;4.15;;;;;;;9.87;52.87;99010.94;8524240;27;20051;-76
2022/04/19 12:00:19;;;;;;;6.63;4.75;;;;;;;10.31;52.31;99005.53;8520145;27;20583;-75
2022/04/19 12:04:20;;;;;;;6.60;4.25;;;;;;;10.72;49.69;99004.47;8513315;27;20085;-77
2022/04/19 12:08:41;;;;;;;6.03;4.45;;;;;;;11.01;47.90;99010.13;8520330;27;20042;-76
2022/04/19 12:12:42;;;;;;;6.60;4.63;;;;;;;11.42;48.18;99001.63;8493997;27;20055;-76
2022/04/19 12:16:57;;;;;;;7.18;5.00;;;;;;;11.23;46.39;99004.63;8509035;27;20092;-76
2022/04/19 12:20:59;;;;;;;5.18;4.10;;;;;;;10.72;45.43;99009.88;8508524;27;20054;-75
2022/04/19 12:25:00;;;;;;;6.18;4.80;;;;;;;10.42;45.88;99006.88;8496439;27;20070;-76
2022/04/19 12:29:12;;;;;;;8.82;6.28;;;;;;;10.78;46.02;99003.25;8479709;27;20039;-76
2022/04/19 12:33:14;;;;;;;9.18;5.35;;;;;;;11.44;45.70;98989.41;8512700;27;20043;-76
2022/04/19 12:37:19;;;;;;;8.05;5.50;;;;;;;11.34;43.56;98999.72;8499927;27;20134;-75
2022/04/19 12:41:20;;;;;;;10.55;6.82;;;;;;;10.84;44.24;98996.59;8551577;27;20427;-76
2022/04/19 12:45:21;;;;;;;14.95;8.57;;;;;;;10.91;45.09;99002.31;8529305;27;20049;-77
2022/04/19 12:49:30;;;;;;;9.85;7.53;;;;;;;11.53;43.34;98989.38;8504033;27;20124;-77
2022/04/19 12:53:33;;;;;;;14.57;8.63;;;;;;;11.01;43.16;99002.03;8490457;27;20051;-78
2022/04/19 12:57:37;;;;;;;11.43;7.63;;;;;;;11.36;41.77;98998.31;8482240;27;20043;-77
2022/04/19 13:01:38;;;;;;;11.63;8.50;;;;;;;11.65;41.30;98994.16;8507655;27;20057;-77
2022/04/19 13:14:19;;;;;;;10.20;7.05;;;;;;;11.91;41.44;98986.88;8543073;27;20125;-77
2022/04/19 13:18:20;;;;;;;11.10;6.90;;;;;;;12.04;40.84;99007.56;8526755;27;20047;-77
2022/04/19 13:22:22;;;;;;;9.70;6.57;;;;;;;11.75;41.42;98999.28;8507020;27;20046;-76
2022/04/19 13:26:23;;;;;;;13.75;6.70;;;;;;;11.48;41.72;98999.56;8555233;27;20054;-76
2022/04/19 13:30:25;;;;;;;11.80;6.32;;;;;;;11.25;43.32;99002.41;8552032;27;20089;-77
2022/04/19 13:34:25;;;;;;;10.82;6.40;;;;;;;11.70;43.29;98996.72;8532489;27;20420;-76
2022/04/19 13:38:35;;;;;;;10.32;5.75;;;;;;;11.38;42.60;99001.47;8508680;27;20125;-77
2022/04/19 13:42:36;;;;;;;10.68;6.05;;;;;;;10.93;43.93;99005.50;8524569;27;20034;-77
2022/04/19 13:46:39;;;;;;;10.27;6.10;;;;;;;10.71;44.98;99008.28;8543858;27;20055;-77
2022/04/19 13:50:40;;;;;;;11.50;6.07;;;;;;;10.80;45.72;99018.00;8535945;27;20491;-77
2022/04/19 13:54:41;;;;;;;10.77;6.10;;;;;;;10.57;45.53;99014.56;8532873;27;20066;-77
2022/04/19 13:58:42;;;;;;;8.85;5.47;;;;;;;10.30;46.28;99020.16;8494900;27;20051;-76
2022/04/19 14:02:44;;;;;;;9.25;5.80;;;;;;;9.95;46.43;99029.06;8495364;27;20407;-76
2022/04/19 14:06:45;;;;;;;12.23;6.40;;;;;;;9.96;47.22;99025.28;8511845;27;20051;-76
2022/04/19 14:10:47;;;;;;;10.07;6.43;;;;;;;9.99;47.51;99032.78;8530127;27;20052;-75
2022/04/19 14:14:48;;;;;;;11.75;7.50;;;;;;;10.05;46.56;99034.22;8493312;27;20051;-76
2022/04/19 14:18:49;;;;;;;10.27;6.70;;;;;;;9.99;46.61;99051.66;8530269;27;20060;-75
2022/04/19 14:22:50;;;;;;;12.27;6.70;;;;;;;10.10;46.23;99044.91;8524725;27;20065;-75
2022/04/19 14:26:51;;;;;;;11.52;5.80;;;;;;;10.14;46.05;99044.00;8453711;27;20053;-76
2022/04/19 14:35:12;;;;;;;9.27;5.63;;;;;;;10.73;44.35;99055.50;8521570;27;20118;-76
2022/04/19 14:39:13;;;;;;;10.93;6.80;;;;;;;11.00;44.23;99051.75;8531647;27;20058;-76
2022/04/19 14:43:16;;;;;;;12.07;7.18;;;;;;;11.00;43.69;99049.06;8523174;27;20515;-77
2022/04/19 14:47:17;;;;;;;9.30;6.05;;;;;;;10.84;43.46;99056.03;8528647;27;20070;-76
2022/04/19 14:55:42;;;;;;;18.63;8.18;;;;;;;10.49;44.47;99050.44;8521021;27;20039;-75
2022/04/19 14:59:46;;;;;;;14.55;8.15;;;;;;;10.40;45.03;99057.69;8513254;27;20046;-76
2022/04/19 15:03:47;;;;;;;12.25;8.05;;;;;;;10.31;45.26;99066.84;8528578;27;20046;-76
2022/04/19 15:07:49;;;;;;;13.52;8.95;;;;;;;10.35;45.53;99071.31;8525588;27;20048;-76
2022/04/19 15:11:54;;;;;;;14.50;6.97;;;;;;;10.20;45.61;99082.50;8481314;27;20047;-76
2022/04/19 15:15:55;;;;;;;10.55;7.10;;;;;;;10.06;46.08;99084.38;8424724;27;20405;-76
2022/04/19 15:19:56;;;;;;;13.80;6.03;;;;;;;9.95;45.99;99089.22;8525045;27;20061;-76
2022/04/19 15:23:57;;;;;;;11.88;6.10;;;;;;;11.87;43.78;99087.94;8526122;27;20049;-75
2022/04/19 15:27:58;;;;;;;9.02;5.68;;;;;;;14.23;39.06;99080.66;8522582;27;20364;-78
2022/04/19 15:32:00;;;;;;;7.85;5.18;;;;;;;13.95;39.66;99080.44;8528761;27;20047;-76
2022/04/19 15:36:01;;;;;;;11.00;5.82;;;;;;;15.44;37.32;99085.56;8528585;27;20102;-76
2022/04/19 15:40:02;;;;;;;9.85;5.70;;;;;;;16.57;35.05;99092.78;8535588;27;20051;-76
2022/04/19 15:44:06;;;;;;;8.27;5.30;;;;;;;17.10;34.08;99095.00;8529623;27;20078;-76
2022/04/19 15:48:07;;;;;;;9.40;5.80;;;;;;;16.15;34.38;99097.84;8521098;27;20043;-76
2022/04/19 15:52:08;;;;;;;8.38;5.65;;;;;;;15.22;35.99;99088.75;8513188;27;20087;-76
2022/04/19 15:56:09;;;;;;;9.90;6.50;;;;;;;15.37;35.35;99090.78;8511073;27;20044;-76
2022/04/19 16:00:11;;;;;;;11.43;5.80;;;;;;;14.46;36.82;99104.78;8502569;27;20063;-76
2022/04/19 16:04:12;;;;;;;7.80;4.80;;;;;;;14.23;37.84;99102.38;8526739;27;20043;-75
2022/04/19 16:08:13;;;;;;;8.52;5.57;;;;;;;13.64;38.99;99098.97;8536495;27;20053;-74
2022/04/19 16:12:15;;;;;;;12.95;5.47;;;;;;;13.67;39.46;99103.75;8525069;27;20072;-75
2022/04/19 16:24:56;;;;;;;13.43;6.57;;;;;;;13.20;40.11;99096.84;8488044;27;20454;-75
2022/04/19 16:28:57;;;;;;;7.55;5.18;;;;;;;12.42;41.54;99104.34;8491871;27;20078;-75
2022/04/19 16:32:58;;;;;;;9.68;4.75;;;;;;;12.10;42.26;99098.31;8516395;27;20045;-75
2022/04/19 16:36:59;;;;;;;10.23;6.53;;;;;;;11.79;42.60;99119.31;8476694;27;20107;-76
2022/04/19 16:41:01;;;;;;;9.80;5.32;;;;;;;11.31;43.18;99109.31;8502723;27;20430;-75
2022/04/19 16:45:03;;;;;;;13.80;7.00;;;;;;;11.08;44.06;99115.88;8516413;27;20052;-75
2022/04/19 16:49:06;;;;;;;9.52;6.15;;;;;;;10.73;44.90;99116.81;8509773;27;20047;-78
2022/04/19 16:53:09;;;;;;;14.32;6.55;;;;;;;10.43;45.70;99121.06;8505794;27;21383;-75
2022/04/19 16:57:10;;;;;;;9.85;5.95;;;;;;;10.23;46.49;99126.94;8514691;27;20132;-75
2022/04/19 17:01:11;;;;;;;8.00;5.22;;;;;;;10.06;46.91;99138.34;8476330;27;20050;-75
2022/04/19 17:05:12;;;;;;;10.82;6.32;;;;;;;9.88;47.41;99131.22;8512037;27;20512;-76
2022/04/19 17:09:14;;;;;;;10.63;5.45;;;;;;;9.61;47.75;99138.25;8528561;27;20121;-76
2022/04/19 17:13:14;;;;;;;8.65;5.47;;;;;;;9.53;48.27;99136.25;8530380;27;20042;-76
2022/04/19 17:17:16;;;;;;;8.07;5.95;;;;;;;9.41;48.87;99133.25;8525354;27;20043;-77
2022/04/19 17:21:17;;;;;;;10.60;6.70;;;;;;;9.30;49.07;99131.88;8513669;27;20488;-77
2022/04/19 17:25:18;;;;;;;12.38;6.80;;;;;;;9.18;49.78;99139.66;8527765;27;20130;-77
2022/04/19 17:29:19;;;;;;;9.75;5.60;;;;;;;8.93;50.41;99142.81;8492454;27;20407;-78
2022/04/19 17:33:20;;;;;;;11.80;5.55;;;;;;;8.77;50.89;99151.16;8566182;27;20121;-76
2022/04/19 17:37:21;;;;;;;12.85;6.13;;;;;;;8.54;52.13;99149.38;8507545;27;20054;-76
2022/04/19 17:41:22;;;;;;;8.43;5.55;;;;;;;8.28;53.44;99154.34;8546522;27;20141;-76
2022/04/19 17:45:23;;;;;;;9.02;5.35;;;;;;;8.03;54.53;99152.84;8533462;27;20051;-76
2022/04/19 17:49:24;;;;;;;8.48;5.00;;;;;;;7.76;55.20;99158.03;8540656;27;20037;-76
2022/04/19 17:57:45;;;;;;;11.15;6.22;;;;;;;7.26;56.71;99169.38;8465746;27;20082;-77
2022/04/19 18:01:47;;;;;;;9.65;5.95;;;;;;;7.01;57.39;99173.94;8496371;27;20531;-76
2022/04/19 18:05:48;;;;;;;10.30;6.20;;;;;;;6.81;58.22;99176.81;8459907;27;20060;-76
2022/04/19 18:09:49;;;;;;;16.48;6.97;;;;;;;6.66;58.88;99187.69;8496220;27;20464;-76
2022/04/19 18:13:50;;;;;;;12.20;6.90;;;;;;;6.49;59.55;99208.72;8496052;27;20039;-76
2022/04/19 18:17:54;;;;;;;10.65;6.30;;;;;;;6.33;59.92;99211.50;8530953;27;20046;-76
2022/04/19 18:26:16;;;;;;;13.00;6.47;;;;;;;6.02;60.49;99220.81;8533016;27;20528;-77
2022/04/19 18:30:17;;;;;;;18.90;9.13;;;;;;;5.87;61.17;99223.53;8486581;27;20043;-77
2022/04/19 18:34:18;;;;;;;44.78;18.35;;;;;;;5.74;61.58;99229.47;8510882;27;20031;-76
2022/04/19 18:38:19;;;;;;;54.65;21.55;;;;;;;5.59;61.96;99226.84;8514180;27;20047;-76
2022/04/19 18:42:20;;;;;;;35.05;16.00;;;;;;;5.46;62.21;99234.38;8512308;27;20122;-76
2022/04/19 18:46:21;;;;;;;26.92;12.27;;;;;;;5.41;62.14;99231.72;8515191;27;20051;-76
2022/04/19 18:50:22;;;;;;;40.30;17.77;;;;;;;5.29;62.76;99228.50;8525564;27;20050;-76
2022/04/19 18:54:24;;;;;;;45.92;19.90;;;;;;;5.18;62.96;99237.66;8521815;27;20532;-76
2022/04/19 18:58:24;;;;;;;70.25;36.22;;;;;;;5.08;63.34;99237.66;8523316;27;20109;-76
2022/04/19 19:02:26;;;;;;;64.82;32.67;;;;;;;4.95;63.81;99246.25;8519846;27;20042;-76
2022/04/19 19:06:27;;;;;;;64.00;34.30;;;;;;;4.84;64.40;99250.78;8517002;27;20107;-76
2022/04/19 19:10:28;;;;;;;60.95;32.97;;;;;;;4.72;64.74;99254.78;8520144;27;20103;-75
2022/04/19 19:14:29;;;;;;;57.80;31.98;;;;;;;4.57;65.60;99247.56;8500827;27;20088;-75
2022/04/19 19:18:30;;;;;;;37.28;19.33;;;;;;;4.46;65.83;99252.09;8455583;27;20518;-75
2022/04/19 19:22:32;;;;;;;33.72;15.90;;;;;;;4.33;65.97;99263.31;8522233;27;20031;-75
2022/04/19 19:26:34;;;;;;;36.40;18.08;;;;;;;4.23;66.40;99257.91;8509584;27;20058;-76
2022/04/19 19:30:35;;;;;;;52.17;20.00;;;;;;;4.17;66.41;99261.66;8507801;27;20054;-75
2022/04/19 19:34:37;;;;;;;36.40;16.27;;;;;;;4.10;66.59;99263.75;8477720;27;20563;-76
2022/04/19 19:38:38;;;;;;;41.53;17.23;;;;;;;3.98;67.21;99265.84;8531205;27;20046;-76
2022/04/19 19:42:40;;;;;;;28.50;13.57;;;;;;;3.88;67.19;99271.16;8511053;27;20091;-76
2022/04/19 19:46:41;;;;;;;33.70;15.18;;;;;;;3.72;67.29;99273.75;8535458;27;20060;-76
2022/04/19 19:50:44;;;;;;;39.40;17.58;;;;;;;3.61;67.77;99272.09;8505721;27;20074;-76
2022/04/19 19:54:45;;;;;;;35.85;16.40;;;;;;;3.56;67.64;99272.06;8398354;27;20484;-76
2022/04/19 19:58:47;;;;;;;32.38;14.15;;;;;;;3.45;68.05;99273.06;8459762;27;20480;-76
2022/04/19 20:02:47;;;;;;;35.75;14.35;;;;;;;3.38;68.40;99272.50;8464570;27;20075;-76
2022/04/19 20:06:51;;;;;;;34.28;16.42;;;;;;;3.26;68.90;99269.22;8463445;27;20066;-76
2022/04/19 20:10:53;;;;;;;45.38;18.20;;;;;;;3.15;68.75;99272.88;8458429;27;20056;-76